Time;durP1;ratioP1;P1;durP2;ratioP2;P2;SDS_P1;SDS_P2;PMS_P1;PMS_P2;Temp;Humidity;BMP_temperature;BMP_pressure;BME280_temperature;BME280_humidity;BME280_pressure;Samples;Min_cycle;Max_cycle;Signal;HPM_P1;HPM_P2
2021/05/25 00:01:12;;;;;;;7.43;1.93;;;;;;;;;;5092753;28;20236;-79
2021/05/25 00:03:39;;;;;;;7.67;2.30;;;;;;;;;;5093773;28;20285;-80
2021/05/25 00:06:06;;;;;;;7.60;2.33;;;;;;;;;;5080416;28;20287;-80
2021/05/25 00:08:32;;;;;;;9.17;2.00;;;;;;;;;;5093111;28;20257;-80
2021/05/25 00:11:00;;;;;;;8.23;2.50;;;;;;;;;;5093329;28;20712;-80
2021/05/25 00:13:27;;;;;;;12.87;2.60;;;;;;;;;;5089192;28;20730;-80
2021/05/25 00:15:54;;;;;;;10.87;2.43;;;;;;;;;;5076059;28;20295;-80
2021/05/25 00:18:21;;;;;;;9.37;2.40;;;;;;;;;;5092337;28;20239;-79
2021/05/25 00:20:48;;;;;;;8.47;2.10;;;;;;;;;;5082786;28;20656;-81
2021/05/25 00:23:15;;;;;;;12.93;1.93;;;;;;;;;;5086097;28;20236;-81
2021/05/25 00:25:44;;;;;;;6.73;1.80;;;;;;;;;;5081296;28;20714;-81
2021/05/25 00:28:11;;;;;;;9.40;2.10;;;;;;;;;;5072666;28;20338;-81
2021/05/25 00:30:39;;;;;;;6.97;2.03;;;;;;;;;;5072818;28;20281;-80
2021/05/25 00:33:06;;;;;;;11.73;2.20;;;;;;;;;;5075277;28;20234;-80
2021/05/25 00:35:35;;;;;;;7.23;2.00;;;;;;;;;;5079814;28;20276;-79
2021/05/25 00:38:02;;;;;;;16.07;2.10;;;;;;;;;;5087062;28;20220;-81
2021/05/25 00:40:28;;;;;;;9.20;2.03;;;;;;;;;;5086560;28;20238;-81
2021/05/25 00:42:55;;;;;;;7.73;2.53;;;;;;;;;;5077995;28;20229;-80
2021/05/25 00:45:22;;;;;;;6.67;1.70;;;;;;;;;;5092761;28;20635;-80
2021/05/25 00:47:50;;;;;;;9.90;2.40;;;;;;;;;;5081625;28;20256;-81
2021/05/25 00:50:18;;;;;;;9.10;2.10;;;;;;;;;;5088766;28;20339;-81
2021/05/25 00:52:46;;;;;;;9.17;2.10;;;;;;;;;;5091204;28;20283;-81
2021/05/25 00:55:14;;;;;;;13.20;2.43;;;;;;;;;;5078579;28;20206;-81
2021/05/25 00:57:42;;;;;;;12.27;2.10;;;;;;;;;;5076276;28;20764;-80
2021/05/25 01:00:09;;;;;;;13.60;2.20;;;;;;;;;;5092449;28;20207;-80
2021/05/25 01:02:37;;;;;;;6.30;2.00;;;;;;;;;;5085070;28;20226;-81
2021/05/25 01:05:05;;;;;;;12.00;2.47;;;;;;;;;;5092716;28;20668;-81
2021/05/25 01:07:32;;;;;;;10.67;2.30;;;;;;;;;;5089651;28;20225;-81
2021/05/25 01:10:00;;;;;;;6.63;1.77;;;;;;;;;;5075005;28;20276;-81
2021/05/25 01:12:30;;;;;;;7.90;2.07;;;;;;;;;;5085675;28;20203;-81
2021/05/25 01:15:01;;;;;;;9.53;2.40;;;;;;;;;;5091145;28;20206;-81
2021/05/25 01:17:28;;;;;;;10.70;2.13;;;;;;;;;;5091914;28;20220;-81
2021/05/25 01:19:55;;;;;;;12.70;2.30;;;;;;;;;;5091798;28;20695;-81
2021/05/25 01:22:22;;;;;;;7.77;1.80;;;;;;;;;;5076915;28;20246;-81
2021/05/25 01:24:49;;;;;;;9.57;2.10;;;;;;;;;;5076489;28;20279;-80
2021/05/25 01:27:16;;;;;;;8.87;2.50;;;;;;;;;;5091960;28;20300;-81
2021/05/25 01:29:42;;;;;;;8.63;1.80;;;;;;;;;;5074874;28;20234;-81
2021/05/25 01:32:09;;;;;;;7.10;2.10;;;;;;;;;;5070895;28;20745;-81
2021/05/25 01:34:36;;;;;;;7.53;2.23;;;;;;;;;;5077812;28;20223;-81
2021/05/25 01:37:03;;;;;;;8.03;1.97;;;;;;;;;;5090945;28;20236;-81
2021/05/25 01:39:31;;;;;;;9.10;2.00;;;;;;;;;;5091977;28;20645;-81
2021/05/25 01:41:58;;;;;;;8.77;2.00;;;;;;;;;;5091646;28;20240;-81
2021/05/25 01:44:25;;;;;;;13.40;2.00;;;;;;;;;;5083734;28;20196;-81
2021/05/25 01:46:52;;;;;;;10.23;1.83;;;;;;;;;;5091202;28;20622;-80
2021/05/25 01:49:19;;;;;;;8.57;2.10;;;;;;;;;;5091714;28;20205;-81
2021/05/25 01:51:47;;;;;;;8.90;1.80;;;;;;;;;;5092170;28;20292;-81
2021/05/25 01:54:13;;;;;;;8.03;1.93;;;;;;;;;;5086470;28;20205;-80
2021/05/25 01:56:41;;;;;;;11.03;1.90;;;;;;;;;;5091472;28;20235;-81
2021/05/25 01:59:08;;;;;;;8.27;1.83;;;;;;;;;;5091409;28;20246;-81
2021/05/25 02:01:34;;;;;;;9.90;2.50;;;;;;;;;;5099416;28;20288;-81
2021/05/25 02:04:01;;;;;;;9.47;2.03;;;;;;;;;;5089672;28;20225;-81
2021/05/25 02:06:28;;;;;;;6.90;1.67;;;;;;;;;;5088874;28;20622;-81
2021/05/25 02:08:55;;;;;;;12.80;1.90;;;;;;;;;;5090103;28;20231;-81
2021/05/25 02:11:22;;;;;;;14.90;2.30;;;;;;;;;;5091186;28;20289;-81
2021/05/25 02:13:50;;;;;;;10.37;1.80;;;;;;;;;;5091290;28;20291;-81
2021/05/25 02:16:18;;;;;;;9.30;1.77;;;;;;;;;;5091077;28;20734;-80
2021/05/25 02:18:45;;;;;;;10.80;1.83;;;;;;;;;;5085003;28;20259;-81
2021/05/25 02:21:13;;;;;;;11.90;2.07;;;;;;;;;;5078671;28;20278;-81
2021/05/25 02:23:40;;;;;;;8.73;2.13;;;;;;;;;;5091612;28;20243;-81
2021/05/25 02:26:07;;;;;;;10.57;2.17;;;;;;;;;;5089838;28;20275;-81
2021/05/25 02:28:34;;;;;;;16.00;2.20;;;;;;;;;;5084218;28;20287;-81
2021/05/25 02:31:01;;;;;;;9.27;1.87;;;;;;;;;;5085684;28;20283;-81
2021/05/25 02:33:28;;;;;;;10.43;2.53;;;;;;;;;;5086197;28;20232;-81
2021/05/25 02:35:57;;;;;;;9.87;2.10;;;;;;;;;;5091009;28;20240;-81
2021/05/25 02:38:24;;;;;;;8.77;1.90;;;;;;;;;;5086975;28;20264;-81
2021/05/25 02:40:51;;;;;;;11.20;2.60;;;;;;;;;;5077068;28;20279;-80
2021/05/25 02:43:18;;;;;;;11.17;2.40;;;;;;;;;;5077117;28;20598;-81
2021/05/25 02:45:45;;;;;;;13.83;2.70;;;;;;;;;;5083066;28;20279;-81
2021/05/25 02:48:13;;;;;;;10.07;2.50;;;;;;;;;;5093454;28;20278;-80
2021/05/25 02:50:40;;;;;;;15.23;2.83;;;;;;;;;;5091724;28;20303;-81
2021/05/25 02:53:07;;;;;;;9.53;1.97;;;;;;;;;;5094685;28;20240;-81
2021/05/25 02:55:35;;;;;;;9.23;2.57;;;;;;;;;;5076976;28;20283;-81
2021/05/25 02:58:02;;;;;;;11.53;2.20;;;;;;;;;;5074235;28;20247;-81
2021/05/25 03:00:30;;;;;;;8.80;2.20;;;;;;;;;;5074892;28;20644;-81
2021/05/25 03:02:57;;;;;;;15.17;2.77;;;;;;;;;;5088792;28;20275;-81
2021/05/25 03:05:25;;;;;;;13.30;2.43;;;;;;;;;;5078632;28;20283;-81
2021/05/25 03:07:52;;;;;;;12.53;2.30;;;;;;;;;;5083662;28;20200;-81
2021/05/25 03:10:21;;;;;;;11.27;2.13;;;;;;;;;;5074268;28;20732;-82
2021/05/25 03:12:48;;;;;;;10.37;2.30;;;;;;;;;;5079965;28;20288;-81
2021/05/25 03:15:16;;;;;;;12.60;2.60;;;;;;;;;;5080003;28;20300;-81
2021/05/25 03:17:42;;;;;;;15.43;2.60;;;;;;;;;;5094600;28;20306;-81
2021/05/25 03:20:10;;;;;;;11.03;2.60;;;;;;;;;;5093516;28;20723;-81
2021/05/25 03:22:38;;;;;;;11.53;2.60;;;;;;;;;;5093324;28;20230;-81
2021/05/25 03:25:05;;;;;;;8.43;2.00;;;;;;;;;;5087983;28;20197;-81
2021/05/25 03:27:32;;;;;;;10.50;2.30;;;;;;;;;;5092412;28;20214;-81
2021/05/25 03:29:59;;;;;;;12.03;2.57;;;;;;;;;;5076189;28;20243;-81
2021/05/25 03:32:25;;;;;;;14.40;2.70;;;;;;;;;;5081403;28;20647;-80
2021/05/25 03:34:52;;;;;;;18.53;3.03;;;;;;;;;;5083075;28;20735;-81
2021/05/25 03:37:19;;;;;;;14.20;2.73;;;;;;;;;;5086790;28;20261;-81
2021/05/25 03:39:47;;;;;;;10.60;3.30;;;;;;;;;;5093835;28;20242;-81
2021/05/25 03:42:13;;;;;;;17.87;2.70;;;;;;;;;;5093436;28;20237;-81
2021/05/25 03:44:40;;;;;;;6.60;2.37;;;;;;;;;;5089609;28;20256;-81
2021/05/25 03:47:07;;;;;;;14.47;3.13;;;;;;;;;;5092938;28;20201;-81
2021/05/25 03:49:33;;;;;;;11.67;2.80;;;;;;;;;;5094050;28;20291;-81
2021/05/25 03:52:00;;;;;;;11.80;2.80;;;;;;;;;;5093611;28;20204;-81
2021/05/25 03:54:31;;;;;;;10.70;2.53;;;;;;;;;;5092193;28;20203;-81
2021/05/25 03:57:06;;;;;;;10.10;2.33;;;;;;;;;;5089545;28;20610;-81
2021/05/25 03:59:32;;;;;;;12.07;2.67;;;;;;;;;;5083539;28;20576;-81
2021/05/25 04:01:59;;;;;;;12.53;2.93;;;;;;;;;;5093225;28;20293;-81
2021/05/25 04:04:27;;;;;;;8.87;2.60;;;;;;;;;;5093856;28;20227;-81
2021/05/25 04:06:54;;;;;;;14.37;3.00;;;;;;;;;;5093255;28;20207;-81
2021/05/25 04:09:21;;;;;;;11.33;3.13;;;;;;;;;;5093408;28;20224;-81
2021/05/25 04:11:48;;;;;;;10.93;2.67;;;;;;;;;;5091619;28;20284;-80
2021/05/25 04:14:16;;;;;;;10.27;3.20;;;;;;;;;;5075546;28;20299;-80
2021/05/25 04:16:43;;;;;;;16.33;2.90;;;;;;;;;;5093295;28;20233;-81
2021/05/25 04:19:10;;;;;;;14.33;3.10;;;;;;;;;;5085592;28;20261;-81
2021/05/25 04:21:36;;;;;;;13.00;2.87;;;;;;;;;;5092804;28;20229;-81
2021/05/25 04:24:03;;;;;;;12.67;2.70;;;;;;;;;;5092612;28;20203;-81
2021/05/25 04:26:30;;;;;;;12.50;3.00;;;;;;;;;;5086188;28;20294;-81
2021/05/25 04:28:57;;;;;;;12.83;3.37;;;;;;;;;;5087704;28;20202;-81
2021/05/25 04:31:24;;;;;;;14.43;2.67;;;;;;;;;;5089015;28;20283;-81
2021/05/25 04:33:51;;;;;;;13.20;2.60;;;;;;;;;;5093098;28;20294;-81
2021/05/25 04:36:18;;;;;;;11.53;2.90;;;;;;;;;;5091955;28;20755;-81
2021/05/25 04:38:45;;;;;;;15.07;3.10;;;;;;;;;;5092567;28;20253;-81
2021/05/25 04:41:11;;;;;;;10.07;3.10;;;5.70;99.90;;;;;;5092728;28;20299;-81
2021/05/25 04:43:38;;;;;;;16.87;3.07;;;;;;;;;;5089131;28;20300;-81
2021/05/25 04:46:05;;;;;;;16.93;3.13;;;;;;;;;;5090991;28;20228;-81
2021/05/25 04:48:33;;;;;;;11.90;2.90;;;;;;;;;;5092334;28;20233;-82
2021/05/25 04:51:00;;;;;;;10.97;3.10;;;5.70;99.90;;;;;;5091745;28;20233;-81
2021/05/25 04:53:26;;;;;;;13.37;3.10;;;5.90;99.90;;;;;;5092560;28;20907;-81
2021/05/25 04:55:53;;;;;;;18.20;3.17;;;;;;;;;;5092494;28;20316;-81
2021/05/25 04:58:20;;;;;;;14.90;3.30;;;;;;;;;;5092369;28;20375;-81
2021/05/25 05:00:47;;;;;;;10.47;3.03;;;;;;;;;;5083607;28;20301;-82
2021/05/25 05:03:14;;;;;;;15.37;3.03;;;6.00;99.90;;;;;;5072814;28;20253;-80
2021/05/25 05:05:42;;;;;;;15.90;3.50;;;;;;;;;;5080779;28;20281;-80
2021/05/25 05:08:08;;;;;;;10.47;3.10;;;6.20;99.90;;;;;;5087951;28;20204;-80
2021/05/25 05:10:35;;;;;;;13.67;3.30;;;;;;;;;;5091857;28;20205;-80
2021/05/25 05:13:08;;;;;;;14.10;3.00;;;6.30;99.90;;;;;;5072882;28;20298;-81
2021/05/25 05:15:35;;;;;;;15.57;3.20;;;;;;;;;;5081897;28;20279;-81
2021/05/25 05:18:13;;;;;;;13.37;2.87;;;6.40;99.90;;;;;;5078501;28;20229;-82
2021/05/25 05:20:40;;;;;;;12.60;3.07;;;;;;;;;;5091931;28;20676;-82
2021/05/25 05:23:08;;;;;;;13.80;3.40;;;;;;;;;;5086745;28;20353;-81
2021/05/25 05:25:36;;;;;;;11.97;3.40;;;;;;;;;;5091859;28;20215;-81
2021/05/25 05:28:03;;;;;;;14.47;3.27;;;;;;;;;;5088863;28;20225;-80
2021/05/25 05:30:31;;;;;;;12.83;3.30;;;;;;;;;;5078277;28;20741;-80
2021/05/25 05:32:58;;;;;;;15.40;3.13;;;;;;;;;;5085739;28;20203;-80
2021/05/25 05:35:26;;;;;;;11.57;2.93;;;;;;;;;;5076617;28;20691;-81
2021/05/25 05:37:53;;;;;;;11.43;3.10;;;;;;;;;;5084636;28;20375;-79
2021/05/25 05:40:22;;;;;;;10.77;3.23;;;;;;;;;;5088819;28;20219;-82
2021/05/25 05:42:49;;;;;;;11.00;2.40;;;;;;;;;;5081257;28;20228;-83
2021/05/25 05:45:20;;;;;;;11.77;3.00;;;;;;;;;;5082206;28;20275;-80
2021/05/25 05:47:46;;;;;;;10.60;3.00;;;;;;;;;;5077730;28;20198;-82
2021/05/25 05:50:13;;;;;;;8.53;2.83;;;;;;;;;;5084277;28;20209;-83
2021/05/25 05:52:40;;;;;;;12.27;2.90;;;;;;;;;;5071010;28;20259;-83
2021/05/25 05:55:08;;;;;;;10.07;2.80;;;;;;;;;;5088181;28;20707;-81
2021/05/25 05:57:36;;;;;;;9.90;3.00;;;;;;;;;;5091317;28;20234;-81
2021/05/25 06:00:06;;;;;;;9.97;3.00;;;;;;;;;;5090496;28;20315;-83
2021/05/25 06:02:33;;;;;;;7.90;2.57;;;;;;;;;;5091331;28;20205;-83
2021/05/25 06:05:00;;;;;;;6.20;2.60;;;;;;;;;;5084799;28;20211;-83
2021/05/25 06:07:27;;;;;;;10.77;2.50;;;;;;;;;;5070510;28;20290;-83
2021/05/25 06:09:56;;;;;;;9.87;2.83;;;;;;;;;;5071156;28;20196;-82
2021/05/25 06:12:23;;;;;;;12.80;3.33;;;;;;;;;;5085055;28;20201;-83
2021/05/25 06:14:51;;;;;;;9.93;2.70;;;;;;;;;;5091537;28;20206;-83
2021/05/25 06:17:18;;;;;;;10.53;2.67;;;;;;;;;;5091153;28;20241;-83
2021/05/25 06:19:44;;;;;;;11.13;2.83;;;;;;;;;;5093442;28;20285;-83
2021/05/25 06:22:11;;;;;;;11.40;2.43;;;;;;;;;;5094885;28;20191;-83
2021/05/25 06:24:38;;;;;;;12.93;2.87;;;;;;;;;;5095473;28;20253;-81
2021/05/25 06:27:05;;;;;;;14.57;2.70;;;;;;;;;;5095326;28;20261;-84
2021/05/25 06:29:32;;;;;;;11.90;2.30;;;;;;;;;;5094872;28;20281;-83
2021/05/25 06:32:01;;;;;;;9.37;2.17;;;;;;;;;;5094751;28;20274;-83
2021/05/25 06:34:28;;;;;;;7.57;2.00;;;;;;;;;;5094574;28;20205;-83
2021/05/25 06:36:54;;;;;;;7.60;2.00;;;;;;;;;;5094436;28;21091;-84
2021/05/25 06:39:21;;;;;;;6.97;1.83;;;;;;;;;;5094561;28;20226;-83
2021/05/25 06:41:48;;;;;;;8.83;2.50;;;;;;;;;;5095398;28;20250;-83
2021/05/25 06:44:15;;;;;;;7.73;1.90;;;;;;;;;;5094539;28;20283;-83
2021/05/25 06:46:41;;;;;;;8.10;2.03;;;;;;;;;;5094730;28;20226;-84
2021/05/25 06:49:11;;;;;;;8.88;1.92;;;;;;;;;;5094751;28;20585;-84
2021/05/25 06:51:37;;;;;;;7.00;1.98;;;;;;;;;;5094569;28;20206;-83
2021/05/25 06:54:06;;;;;;;8.65;1.98;;;;;;;;;;5094851;28;20213;-84
2021/05/25 06:56:33;;;;;;;8.77;2.15;;;;;;;;;;5094672;28;20675;-84
2021/05/25 06:58:59;;;;;;;7.38;1.85;;;;;;;;;;5094691;28;20309;-82
2021/05/25 07:01:26;;;;;;;7.47;1.85;;;;;;;;;;5094335;28;20684;-82
2021/05/25 07:03:54;;;;;;;6.55;1.42;;;;;;;;;;5094670;28;20273;-84
2021/05/25 07:06:23;;;;;;;7.68;2.30;;;;;;;;;;5094134;28;20285;-84
2021/05/25 07:08:49;;;;;;;7.78;1.95;;;;;;;;;;5093628;28;20249;-84
2021/05/25 07:11:16;;;;;;;9.45;2.35;;;;;;;;;;5094203;28;20234;-84
2021/05/25 07:13:43;;;;;;;7.82;1.95;;;;;;;;;;5094083;28;20202;-81
2021/05/25 07:16:10;;;;;;;6.72;1.88;;;;;;;;;;5094557;28;20208;-84
2021/05/25 07:18:37;;;;;;;6.10;1.52;;;;;;;;;;5093970;28;20224;-84
2021/05/25 07:21:04;;;;;;;4.22;1.45;;;;;;;;;;5093990;28;20233;-83
2021/05/25 07:23:32;;;;;;;9.82;2.03;;;;;;;;;;5093877;28;20186;-84
2021/05/25 07:25:59;;;;;;;5.75;1.90;;;;;;;;;;5093472;28;20943;-85
2021/05/25 07:28:25;;;;;;;7.57;2.20;;;;;;;;;;5094044;28;20250;-84
2021/05/25 07:30:52;;;;;;;8.75;2.25;;;;;;;;;;5075769;28;20230;-84
2021/05/25 07:33:19;;;;;;;5.93;1.77;;;;;;;;;;5094224;28;20239;-84
2021/05/25 07:35:46;;;;;;;6.03;1.73;;;;;;;;;;5094031;28;20560;-84
2021/05/25 07:38:13;;;;;;;8.00;2.17;;;;;;;;;;5093451;28;20720;-84
2021/05/25 07:40:42;;;;;;;6.80;1.70;;;;;;;;;;5093941;28;20286;-84
2021/05/25 07:43:09;;;;;;;6.78;1.88;;;;;;;;;;5094137;28;20645;-83
2021/05/25 07:45:36;;;;;;;6.68;1.70;;;;;;;;;;5093599;28;20234;-84
2021/05/25 07:48:03;;;;;;;7.82;1.95;;;;;;;;;;5093800;28;20196;-84
2021/05/25 07:50:30;;;;;;;6.40;2.00;;;;;;;;;;5093850;28;20202;-84
2021/05/25 07:52:57;;;;;;;7.07;1.77;;;;;;;;;;5093423;28;20194;-84
2021/05/25 07:55:24;;;;;;;5.55;1.70;;;;;;;;;;5093654;28;20284;-84
2021/05/25 07:57:52;;;;;;;7.63;1.88;;;;;;;;;;5074022;28;20247;-84
2021/05/25 08:00:19;;;;;;;7.50;1.90;;;;;;;;;;5073455;28;20278;-84
2021/05/25 08:02:46;;;;;;;10.27;1.88;;;;;;;;;;5072649;28;20647;-84
2021/05/25 08:05:14;;;;;;;5.93;1.77;;;;;;;;;;5073408;28;20199;-84
2021/05/25 08:07:41;;;;;;;8.27;1.77;;;;;;;;;;5073061;28;20322;-84
2021/05/25 08:10:08;;;;;;;6.80;1.77;;;;;;;;;;5086979;28;20281;-84
2021/05/25 08:12:35;;;;;;;7.47;1.70;;;;;;;;;;5077985;28;20211;-84
2021/05/25 08:15:05;;;;;;;10.60;1.98;;;;;;;;;;5093312;28;20253;-85
2021/05/25 08:17:45;;;;;;;5.20;1.55;;;;;;;;;;5092879;28;20238;-85
2021/05/25 08:20:16;;;;;;;6.55;1.70;;;;;;;;;;5093561;28;20241;-85
2021/05/25 08:22:42;;;;;;;5.80;1.65;;;;;;;;;;5082015;28;20282;-85
2021/05/25 08:25:10;;;;;;;5.85;1.77;;;;;;;;;;5054983;28;20536;-85
2021/05/25 08:27:37;;;;;;;5.88;1.48;;;;;;;;;;5096955;28;20249;-84
2021/05/25 08:30:05;;;;;;;7.93;1.77;;;;;;;;;;5089071;28;20274;-85
2021/05/25 08:32:32;;;;;;;7.72;1.90;;;;;;;;;;5082489;28;20340;-85
2021/05/25 08:34:59;;;;;;;5.55;2.00;;;;;;;;;;5092538;28;20187;-84
2021/05/25 08:37:25;;;;;;;6.22;2.03;;;;;;;;;;5092374;28;20269;-84
2021/05/25 08:39:52;;;;;;;6.35;1.58;;;;;;;;;;5091740;28;20257;-84
2021/05/25 08:42:21;;;;;;;7.63;1.98;;;;;;;;;;5092090;28;20350;-85
2021/05/25 08:44:47;;;;;;;6.63;1.63;;;;;;;;;;5092772;28;20657;-84
2021/05/25 08:47:15;;;;;;;8.45;1.67;;;;;;;;;;5091907;28;20205;-84
2021/05/25 08:49:42;;;;;;;5.72;1.67;;;;;;;;;;5092958;28;20281;-84
2021/05/25 08:52:09;;;;;;;6.30;1.75;;;;;;;;;;5092654;28;20277;-85
2021/05/25 08:54:37;;;;;;;5.40;1.33;;;;;;;;;;5093005;28;20674;-84
2021/05/25 08:57:05;;;;;;;4.63;1.70;;;;;;;;;;5092560;28;20338;-85
2021/05/25 08:59:31;;;;;;;7.60;1.88;;;;;;;;;;5091365;28;20214;-85
2021/05/25 09:01:58;;;;;;;4.55;1.15;;;;;;;;;;5076317;28;20690;-85
2021/05/25 09:04:26;;;;;;;4.07;1.20;;;;;;;;;;5072160;28;20239;-85
2021/05/25 09:06:52;;;;;;;5.22;1.50;;;;;;;;;;5072197;28;20290;-85
2021/05/25 09:09:22;;;;;;;7.30;1.58;;;;;;;;;;5072032;28;20742;-85
2021/05/25 09:11:55;;;;;;;5.68;1.60;;;;;;;;;;5081219;28;20228;-84
2021/05/25 09:14:22;;;;;;;7.25;1.70;;;;;;;;;;5092881;28;20277;-85
2021/05/25 09:16:49;;;;;;;4.68;1.48;;;;;;;;;;5091865;28;20201;-83
2021/05/25 09:19:15;;;;;;;4.68;1.20;;;;;;;;;;5091912;28;20265;-85
2021/05/25 09:21:43;;;;;;;6.55;1.20;;;;;;;;;;5092395;28;20279;-84
2021/05/25 09:24:10;;;;;;;5.50;1.48;;;;;;;;;;5092184;28;20256;-84
2021/05/25 09:26:42;;;;;;;5.97;1.70;;;;;;;;;;5092185;28;20260;-85
2021/05/25 09:29:10;;;;;;;4.95;1.45;;;;;;;;;;5091885;28;20334;-85
2021/05/25 09:31:40;;;;;;;4.43;1.20;;;;;;;;;;5091601;28;20285;-85
2021/05/25 09:34:10;;;;;;;5.90;1.38;;;;;;;;;;5091545;28;20226;-84
2021/05/25 09:36:56;;;;;;;5.28;1.67;;;;;;;;;;5091941;28;20258;-84
2021/05/25 09:39:23;;;;;;;5.70;1.42;;;;;;;;;;5076621;28;20272;-84
2021/05/25 09:41:57;;;;;;;5.10;1.45;;;;;;;;;;5072047;28;20241;-84
2021/05/25 09:44:24;;;;;;;6.70;1.70;;;;;;;;;;5071549;28;20607;-84
2021/05/25 09:46:51;;;;;;;4.82;1.60;;;;;;;;;;5073453;28;20191;-84
2021/05/25 09:49:19;;;;;;;5.15;1.70;;;;;;;;;;5071254;28;20199;-84
2021/05/25 09:51:45;;;;;;;7.63;1.85;;;;;;;;;;5089217;28;20202;-84
2021/05/25 09:54:19;;;;;;;6.47;1.70;;;;;;;;;;5084337;28;20230;-85
2021/05/25 09:56:57;;;;;;;8.18;1.80;;;;;;;;;;5076237;28;20245;-84
2021/05/25 09:59:31;;;;;;;3.92;1.52;;;;;;;;;;5075499;28;20231;-84
2021/05/25 10:01:59;;;;;;;7.20;1.50;;;;;;;;;;5075758;28;20268;-84
2021/05/25 10:04:27;;;;;;;7.40;1.45;;;;;;;;;;5075610;28;20720;-84
2021/05/25 10:06:54;;;;;;;5.93;1.58;;;;;;;;;;5090197;28;20583;-84
2021/05/25 10:09:21;;;;;;;9.02;1.88;;;;;;;;;;5078619;28;20278;-85
2021/05/25 10:11:48;;;;;;;7.38;1.45;;;;;;;;;;5091234;28;20288;-84
2021/05/25 10:14:18;;;;;;;6.90;1.45;;;;;;;;;;5095027;28;20243;-84
2021/05/25 10:16:47;;;;;;;5.85;1.50;;;;;;;;;;5078155;28;20197;-85
2021/05/25 10:19:25;;;;;;;5.75;1.38;;;;;;;;;;5095624;28;20218;-84
2021/05/25 10:21:52;;;;;;;6.22;1.40;;;;;;;;;;5096594;28;20202;-84
2021/05/25 10:24:19;;;;;;;7.55;1.52;;;;;;;;;;5096439;28;20203;-84
2021/05/25 10:26:46;;;;;;;6.18;1.70;;;;;;;;;;5098132;28;20760;-84
2021/05/25 10:29:13;;;;;;;6.47;2.10;;;;;;;;;;5097167;28;20198;-84
2021/05/25 10:31:43;;;;;;;5.65;1.63;;;;;;;;;;5097964;28;20289;-84
2021/05/25 10:34:14;;;;;;;5.57;1.40;;;;;;;;;;5097517;28;20202;-84
2021/05/25 10:36:42;;;;;;;6.32;1.83;;;;;;;;;;5097491;28;20261;-84
2021/05/25 10:39:09;;;;;;;6.60;1.60;;;;;;;;;;5079253;28;20218;-84
2021/05/25 10:41:42;;;;;;;5.68;1.27;;;;;;;;;;5097269;28;20310;-84
2021/05/25 10:44:08;;;;;;;6.90;1.67;;;;;;;;;;5096461;28;20197;-83
2021/05/25 10:46:35;;;;;;;5.57;1.48;;;;;;;;;;5097006;28;20237;-83
2021/05/25 10:49:15;;;;;;;5.00;1.45;;;;;;;;;;5097646;28;20226;-83
2021/05/25 10:51:58;;;;;;;4.45;1.40;;;;;;;;;;5077545;28;20225;-84
2021/05/25 10:54:26;;;;;;;8.57;1.83;;;;;;;;;;5070070;28;20198;-84
2021/05/25 10:56:53;;;;;;;5.78;1.50;;;;;;;;;;5077145;28;20559;-83
2021/05/25 10:59:20;;;;;;;6.00;1.88;;;;;;;;;;5075883;28;20254;-84
2021/05/25 11:01:54;;;;;;;6.40;1.30;;;;;;;;;;5075873;28;20199;-84
2021/05/25 11:04:24;;;;;;;7.23;1.83;;;;;;;;;;5075978;28;20196;-84
2021/05/25 11:06:51;;;;;;;8.13;1.70;;;;;;;;;;5076697;28;20658;-83
2021/05/25 11:09:27;;;;;;;8.00;1.60;;;;;;;;;;5084208;28;20203;-83
2021/05/25 11:12:12;;;;;;;6.53;1.35;;;;;;;;;;5096294;28;20705;-84
2021/05/25 11:14:39;;;;;;;7.85;1.55;;;;;;;;;;5096521;28;20191;-84
2021/05/25 11:17:25;;;;;;;7.80;2.05;;;;;;;;;;5097006;28;20301;-84
2021/05/25 11:20:08;;;;;;;5.30;1.52;;;;;;;;;;5097115;28;20222;-84
2021/05/25 11:22:36;;;;;;;6.72;1.35;;;;;;;;;;5096684;28;20191;-84
2021/05/25 11:25:06;;;;;;;7.40;2.05;;;;;;;;;;5096511;28;20205;-84
2021/05/25 11:27:44;;;;;;;6.47;1.55;;;;;;;;;;5095107;28;20717;-83
2021/05/25 11:30:24;;;;;;;5.18;1.48;;;;;;;;;;5096289;28;20281;-84
2021/05/25 11:32:53;;;;;;;5.82;1.50;;;;;;;;;;5096665;28;20232;-84
2021/05/25 11:35:22;;;;;;;8.80;1.83;;;;;;;;;;5096945;28;20229;-84
2021/05/25 11:37:51;;;;;;;6.40;1.33;;;;;;;;;;5095898;28;20589;-83
2021/05/25 11:40:18;;;;;;;7.20;1.47;;;;;;;;;;5095745;28;20216;-84
2021/05/25 11:42:45;;;;;;;3.27;1.20;;;;;;;;;;5094101;28;20202;-83
2021/05/25 11:45:12;;;;;;;6.00;1.30;;;;;;;;;;5094022;28;20674;-84
2021/05/25 11:47:40;;;;;;;11.60;2.27;;;;;;;;;;5093572;28;20226;-84
2021/05/25 11:50:08;;;;;;;3.00;1.20;;;;;;;;;;5093991;28;20206;-83
2021/05/25 11:52:36;;;;;;;4.87;1.30;;;;;;;;;;5092567;28;20229;-83
2021/05/25 11:55:04;;;;;;;6.50;1.67;;;;;;;;;;5088206;28;20279;-83
2021/05/25 11:57:37;;;;;;;6.40;1.30;;;;;;;;;;5073184;28;20737;-83
2021/05/25 12:00:06;;;;;;;8.73;1.97;;;;;;;;;;5073303;28;20706;-83
2021/05/25 12:02:33;;;;;;;8.83;1.60;;;;;;;;;;5073305;28;20284;-84
2021/05/25 12:05:01;;;;;;;8.20;1.70;;;;;;;;;;5073508;28;20195;-83
2021/05/25 12:07:28;;;;;;;5.97;1.47;;;;;;;;;;5073086;28;20298;-82
2021/05/25 12:09:58;;;;;;;7.07;1.30;;;;;;;;;;5054919;28;20217;-83
2021/05/25 12:12:27;;;;;;;5.40;1.60;;;;;;;;;;5087526;28;20210;-84
2021/05/25 12:14:54;;;;;;;7.30;1.50;;;;;;;;;;5093311;28;20203;-84
2021/05/25 12:17:25;;;;;;;7.47;2.10;;;;;;;;;;5092362;28;20282;-83
2021/05/25 12:19:53;;;;;;;5.00;1.50;;;;;;;;;;5092838;28;20301;-83
2021/05/25 12:22:32;;;;;;;5.23;1.60;;;;;;;;;;5093634;28;20242;-84
2021/05/25 12:25:14;;;;;;;4.63;1.30;;;;;;;;;;5092958;28;20190;-84
2021/05/25 12:27:42;;;;;;;4.80;1.27;;;;;;;;;;5092385;28;20309;-83
2021/05/25 12:30:09;;;;;;;5.33;1.10;;;;;;;;;;5093301;28;20222;-83
2021/05/25 12:32:36;;;;;;;6.17;1.23;;;;;;;;;;5092779;28;20230;-83
2021/05/25 12:35:03;;;;;;;7.37;1.70;;;;;;;;;;5093024;28;20194;-83
2021/05/25 12:37:30;;;;;;;7.63;2.03;;;;;;;;;;5092836;28;20262;-84
2021/05/25 12:40:04;;;;;;;5.13;1.50;;;;;;;;;;5080188;28;20680;-83
2021/05/25 12:42:35;;;;;;;9.27;1.77;;;;;;;;;;5072913;28;20203;-83
2021/05/25 12:45:09;;;;;;;6.83;1.53;;;;;;;;;;5071862;28;20651;-84
2021/05/25 12:47:49;;;;;;;5.57;1.60;;;;;;;;;;5072798;28;20256;-83
2021/05/25 12:50:16;;;;;;;7.37;1.97;;;;;;;;;;5072552;28;20677;-83
2021/05/25 12:52:43;;;;;;;6.20;1.47;;;;;;;;;;5072283;28;20272;-83
2021/05/25 12:55:11;;;;;;;6.73;1.87;;;;;;;;;;5072473;28;20220;-83
2021/05/25 12:57:44;;;;;;;6.00;1.90;;;;;;;;;;5054815;28;20203;-83
2021/05/25 13:00:13;;;;;;;6.80;1.70;;;;;;;;;;5071988;28;20258;-84
2021/05/25 13:02:40;;;;;;;5.23;1.67;;;;;;;;;;5091401;28;20658;-83
2021/05/25 13:05:08;;;;;;;9.57;2.00;;;;;;;;;;5092504;28;20222;-84
2021/05/25 13:07:49;;;;;;;9.65;1.83;;;;;;;;;;5091772;28;20194;-84
2021/05/25 13:10:23;;;;;;;7.83;1.93;;;;;;;;;;5092498;28;20237;-84
2021/05/25 13:12:50;;;;;;;7.47;1.70;;;;;;;;;;5091928;28;20205;-83
2021/05/25 13:15:18;;;;;;;7.97;1.60;;;;;;;;;;5092465;28;20237;-83
2021/05/25 13:17:56;;;;;;;4.63;1.38;;;;;;;;;;5091795;28;20195;-83
2021/05/25 13:20:24;;;;;;;4.65;1.70;;;;;;;;;;5092326;28;20303;-84
2021/05/25 13:22:51;;;;;;;4.32;1.52;;;;;;;;;;5091567;28;20206;-83
2021/05/25 13:25:18;;;;;;;5.95;1.50;;;;;;;;;;5092432;28;20226;-83
2021/05/25 13:27:52;;;;;;;4.15;1.65;;;;;;;;;;5091393;28;20297;-84
2021/05/25 13:30:31;;;;;;;7.47;1.60;;;;;;;;;;5092079;28;20202;-84
2021/05/25 13:32:58;;;;;;;5.60;1.48;;;;;;;;;;5091806;28;20634;-83
2021/05/25 13:35:24;;;;;;;6.10;1.60;;;;;;;;;;5085958;28;20194;-84
2021/05/25 13:37:51;;;;;;;7.20;1.90;;;;;;;;;;5088293;28;20309;-84
2021/05/25 13:40:19;;;;;;;4.80;1.58;;;;;;;;;;5091474;28;20214;-83
2021/05/25 13:42:45;;;;;;;5.22;1.70;;;;;;;;;;5091900;28;20225;-84
2021/05/25 13:45:13;;;;;;;4.60;1.52;;;;;;;;;;5091146;28;20275;-83
2021/05/25 13:47:40;;;;;;;6.22;1.90;;;;;;;;;;5091880;28;20591;-84
2021/05/25 13:52:48;;;;;;;6.75;1.90;;;;;;;;;;5091593;28;20208;-83
2021/05/25 13:55:16;;;;;;;6.82;2.00;;;;;;;;;;5091578;28;20230;-84
2021/05/25 13:57:43;;;;;;;7.15;1.70;;;;;;;;;;5091488;28;20198;-84
2021/05/25 14:00:12;;;;;;;4.78;1.73;;;;;;;;;;5091088;28;20240;-83
2021/05/25 14:02:39;;;;;;;6.40;1.98;;;;;;;;;;5092008;28;20206;-84
2021/05/25 14:05:07;;;;;;;3.92;1.50;;;;;;;;;;5091323;28;20309;-84
2021/05/25 14:07:39;;;;;;;8.45;1.58;;;;;;;;;;5092719;28;20282;-84
2021/05/25 14:10:07;;;;;;;8.63;2.40;;;;;;;;;;5092373;28;20669;-84
2021/05/25 14:12:33;;;;;;;7.32;1.90;;;;;;;;;;5093462;28;20238;-84
2021/05/25 14:15:00;;;;;;;8.20;1.90;;;;;;;;;;5092956;28;20233;-84
2021/05/25 14:17:27;;;;;;;7.60;1.80;;;;;;;;;;5078576;28;20230;-81
2021/05/25 14:19:53;;;;;;;6.07;2.25;;;;;;;;;;5072045;28;20314;-81
2021/05/25 14:22:22;;;;;;;7.32;1.70;;;;;;;;;;5072560;28;20306;-80
2021/05/25 14:24:49;;;;;;;5.93;1.60;;;;;;;;;;5072726;28;20272;-81
2021/05/25 14:27:16;;;;;;;6.53;2.00;;;;;;;;;;5094671;28;20301;-80
2021/05/25 14:29:43;;;;;;;7.50;2.27;;;;;;;;;;5101671;28;20243;-82
2021/05/25 14:32:09;;;;;;;6.50;1.90;;;;;;;;;;5110947;28;20250;-82
2021/05/25 14:34:36;;;;;;;5.27;1.77;;;;;;;;;;5093383;28;20679;-82
2021/05/25 14:37:03;;;;;;;9.07;1.83;;;;;;;;;;5092974;28;20242;-81
2021/05/25 14:39:30;;;;;;;8.77;1.90;;;;;;;;;;5092520;28;20313;-82
2021/05/25 14:41:57;;;;;;;6.20;1.83;;;;;;;;;;5085697;28;20681;-82
2021/05/25 14:44:24;;;;;;;6.57;1.87;;;;;;;;;;5088553;28;20234;-82